Powassan, Canada
Current Conditions -  °F | °C
As of 4:00 AM on Wednesday 22 Oct 2014 (Local Time) from CYYB Reporting Station
Clear Clear  
Wind Chill: 24°   Ceiling: Unl
Heat Index: 32°   Visibility: 9mi
Dew Point: 28°   Wind: 9mph
Humidity: 87%   Direction: 40°NE
Pressure: 30.28"   Gusts: NA
Location:  46.08°N, 79.36°W
Report Text: CYYB 220800Z AUTO 04008KT 9SM CLR M00/M02 A3028 RMK SLP270
Loading
Personal Weather Stations






























Interactive Weather Map
Tropical Storm Tracking
New forecast layout! Learn more

10-Day Weather Forecast

Advertisements
Track Severe Weather on mobile